Falling Spring, Virginia
Current Conditions -  °F | °C
As of 9:55 AM on Wednesday 22 Oct 2014 (Local Time) from KHSP Reporting Station
Overcast Overcast  
Wind Chill: 33°   Ceiling: 600
Heat Index: 41°   Visibility: 10mi
Dew Point: 38°   Wind: 15mph
Humidity: 91%   Direction: 310°NW
Pressure: 30.01"   Gusts: 22mph
Location:  37.9738°N, 79.8988°W
Report Text: KHSP 221355Z AUTO 31013G19KT 10SM OVC006 05/04 A3001 RMK AO2 T00490036
Loading
Personal Weather Stations






























Interactive Weather Map
Tropical Storm Tracking
New forecast layout! Learn more

10-Day Weather Forecast

Advertisements
Track Severe Weather on mobile